Pede Vento — CRLZ9 — position and weather

sailwx.info

Track history (hours):
 
Tides and Currents Weather Stations Pressure Air Temp Water Temp Dewpoint Dewpoint Depression Visibility Wind Speed Wind Dir Waves Ship Positions

Pede Vento

Last reported at 2016-Jul-23 19:05 UTC. Time now 2016-Jul-27 09:39 UTC.
Position N 37°38' W 009°11'.

Length 12 m.

Type: Sailing vessel. MMSI: 263819560.

Date/timePositionNaut miles runAvg speedWind from/ knotsBaromVisibWave heightAir tempDewpointWater temp
2016-Jul-23 19:05N 37°38' W 009°11'4 6.8
2016-Jul-23 18:33N 37°41' W 009°14'6 6.0
2016-Jul-23 17:33N 37°46' W 009°17'7 7.3
2016-Jul-23 16:33N 37°53' W 009°18'8 7.7
2016-Jul-23 15:32N 38°01' W 009°18'7 7.4
2016-Jul-23 14:33N 38°08' W 009°19'22 7.3
2016-Jul-23 11:32N 38°30' W 009°20'8 7.1
2016-Jul-23 10:26N 38°38' W 009°19'8 0.2
2016-Jul-21 16:14N 38°42' W 009°10'  
2016-Jul-17 13:25N 38°42' W 009°11'  
Track history (hours):
 
Tides and Currents Weather Stations Pressure Air Temp Water Temp Dewpoint Dewpoint Depression Visibility Wind Speed Wind Dir Waves Ship Positions

Pede Vento

Last reported at 2016-Jul-23 19:05 UTC. Time now 2016-Jul-27 09:39 UTC.
Position N 37°38' W 009°11'.

Length 12 m.

Type: Sailing vessel. MMSI: 263819560.

Date/timePositionNaut miles runAvg speedWind from/ knotsBaromVisibWave heightAir tempDewpointWater temp
2016-Jul-23 19:05N 37°38' W 009°11'4 6.8
2016-Jul-23 18:33N 37°41' W 009°14'6 6.0
2016-Jul-23 17:33N 37°46' W 009°17'7 7.3
2016-Jul-23 16:33N 37°53' W 009°18'8 7.7
2016-Jul-23 15:32N 38°01' W 009°18'7 7.4
2016-Jul-23 14:33N 38°08' W 009°19'22 7.3
2016-Jul-23 11:32N 38°30' W 009°20'8 7.1
2016-Jul-23 10:26N 38°38' W 009°19'8 0.2
2016-Jul-21 16:14N 38°42' W 009°10'  
2016-Jul-17 13:25N 38°42' W 009°11'  

Dump ship's entire track history